sensor_id;sensor_type;location;lat;lon;timestamp;pressure;altitude;pressure_sealevel;temperature;humidity
79645;BME280;69117;47.148;18.954;2023-05-02T00:01:21;100644.16;;;10.36;68.40
79645;BME280;69117;47.148;18.954;2023-05-02T00:04:22;100634.13;;;10.30;69.60
79645;BME280;69117;47.148;18.954;2023-05-02T00:07:25;100635.13;;;10.29;72.07
79645;BME280;69117;47.148;18.954;2023-05-02T00:10:27;100642.88;;;10.30;70.13
79645;BME280;69117;47.148;18.954;2023-05-02T00:13:28;100631.00;;;10.15;69.97
79645;BME280;69117;47.148;18.954;2023-05-02T00:16:30;100644.22;;;10.15;72.97
79645;BME280;69117;47.148;18.954;2023-05-02T00:19:37;100642.22;;;10.07;72.08
79645;BME280;69117;47.148;18.954;2023-05-02T00:22:38;100639.59;;;10.07;72.70
79645;BME280;69117;47.148;18.954;2023-05-02T00:25:44;100632.09;;;10.03;71.65
79645;BME280;69117;47.148;18.954;2023-05-02T00:28:46;100616.50;;;9.90;69.12
79645;BME280;69117;47.148;18.954;2023-05-02T00:31:47;100626.91;;;9.92;68.13
79645;BME280;69117;47.148;18.954;2023-05-02T00:34:49;100625.34;;;9.89;72.30
79645;BME280;69117;47.148;18.954;2023-05-02T00:37:52;100630.47;;;9.81;74.34
79645;BME280;69117;47.148;18.954;2023-05-02T00:40:54;100622.66;;;9.70;70.81
79645;BME280;69117;47.148;18.954;2023-05-02T00:43:57;100621.81;;;9.69;71.76
79645;BME280;69117;47.148;18.954;2023-05-02T00:47:00;100622.78;;;9.68;73.16
79645;BME280;69117;47.148;18.954;2023-05-02T00:50:02;100632.66;;;9.76;72.39
79645;BME280;69117;47.148;18.954;2023-05-02T00:53:06;100631.84;;;9.75;71.29
79645;BME280;69117;47.148;18.954;2023-05-02T00:56:08;100626.38;;;9.67;72.59
79645;BME280;69117;47.148;18.954;2023-05-02T00:59:11;100634.78;;;9.82;70.07
79645;BME280;69117;47.148;18.954;2023-05-02T01:02:33;100635.88;;;9.79;69.33
79645;BME280;69117;47.148;18.954;2023-05-02T01:05:58;100641.56;;;9.75;68.21
79645;BME280;69117;47.148;18.954;2023-05-02T01:12:41;100618.16;;;9.60;69.32
79645;BME280;69117;47.148;18.954;2023-05-02T01:15:43;100629.28;;;9.64;74.69
79645;BME280;69117;47.148;18.954;2023-05-02T01:18:47;100624.28;;;9.61;70.17
79645;BME280;69117;47.148;18.954;2023-05-02T01:21:51;100620.63;;;9.52;72.24
79645;BME280;69117;47.148;18.954;2023-05-02T01:25:17;100627.69;;;9.52;69.17
79645;BME280;69117;47.148;18.954;2023-05-02T01:32:01;100623.25;;;9.52;70.38
79645;BME280;69117;47.148;18.954;2023-05-02T01:35:04;100614.91;;;9.47;69.98
79645;BME280;69117;47.148;18.954;2023-05-02T01:38:07;100594.91;;;9.45;68.84
79645;BME280;69117;47.148;18.954;2023-05-02T01:41:09;100611.84;;;9.42;69.97
79645;BME280;69117;47.148;18.954;2023-05-02T01:44:14;100603.47;;;9.37;70.67
79645;BME280;69117;47.148;18.954;2023-05-02T01:47:18;100603.88;;;9.32;70.26
79645;BME280;69117;47.148;18.954;2023-05-02T01:50:23;100609.25;;;9.31;71.83
79645;BME280;69117;47.148;18.954;2023-05-02T01:53:27;100606.06;;;9.27;70.48
79645;BME280;69117;47.148;18.954;2023-05-02T01:56:32;100597.13;;;9.18;70.33
79645;BME280;69117;47.148;18.954;2023-05-02T01:59:35;100606.88;;;9.28;69.88
79645;BME280;69117;47.148;18.954;2023-05-02T02:02:40;100603.69;;;9.24;72.65
79645;BME280;69117;47.148;18.954;2023-05-02T02:05:42;100607.81;;;9.17;74.77
79645;BME280;69117;47.148;18.954;2023-05-02T02:08:45;100607.34;;;9.12;71.20
79645;BME280;69117;47.148;18.954;2023-05-02T02:12:00;100604.00;;;9.10;74.46
79645;BME280;69117;47.148;18.954;2023-05-02T02:18:19;100585.44;;;8.90;73.32
79645;BME280;69117;47.148;18.954;2023-05-02T02:21:22;100598.34;;;8.93;74.81
79645;BME280;69117;47.148;18.954;2023-05-02T02:24:25;100584.34;;;8.93;73.02
79645;BME280;69117;47.148;18.954;2023-05-02T02:27:28;100583.06;;;8.87;76.77
79645;BME280;69117;47.148;18.954;2023-05-02T02:30:29;100583.31;;;8.84;75.84
79645;BME280;69117;47.148;18.954;2023-05-02T02:33:31;100579.91;;;8.93;74.57
79645;BME280;69117;47.148;18.954;2023-05-02T02:36:38;100578.59;;;8.88;74.61
79645;BME280;69117;47.148;18.954;2023-05-02T02:40:04;100568.84;;;8.79;76.33
79645;BME280;69117;47.148;18.954;2023-05-02T02:43:22;100558.59;;;8.64;75.68
79645;BME280;69117;47.148;18.954;2023-05-02T02:49:49;100579.31;;;8.69;75.96
79645;BME280;69117;47.148;18.954;2023-05-02T02:53:16;100584.84;;;8.66;76.71
79645;BME280;69117;47.148;18.954;2023-05-02T02:56:21;100573.81;;;8.61;77.17
79645;BME280;69117;47.148;18.954;2023-05-02T03:03:21;100581.91;;;8.48;75.80
79645;BME280;69117;47.148;18.954;2023-05-02T03:06:29;100577.47;;;8.48;76.62
79645;BME280;69117;47.148;18.954;2023-05-02T03:09:42;100567.34;;;8.33;77.77
79645;BME280;69117;47.148;18.954;2023-05-02T03:12:44;100582.97;;;8.34;75.45
79645;BME280;69117;47.148;18.954;2023-05-02T03:18:50;100595.06;;;8.37;54.92
79645;BME280;69117;47.148;18.954;2023-05-02T03:21:52;100565.44;;;8.23;54.38
79645;BME280;69117;47.148;18.954;2023-05-02T03:24:53;100591.38;;;8.39;0.00
79645;BME280;69117;47.148;18.954;2023-05-02T03:27:56;100595.19;;;8.35;0.00
79645;BME280;69117;47.148;18.954;2023-05-02T03:30:58;100576.47;;;8.17;0.00
79645;BME280;69117;47.148;18.954;2023-05-02T03:33:59;100577.78;;;8.23;0.00
79645;BME280;69117;47.148;18.954;2023-05-02T03:37:01;100573.59;;;8.20;0.00
79645;BME280;69117;47.148;18.954;2023-05-02T03:40:03;100599.75;;;8.33;0.00
79645;BME280;69117;47.148;18.954;2023-05-02T03:43:05;100595.91;;;8.37;0.00
79645;BME280;69117;47.148;18.954;2023-05-02T03:46:08;100611.81;;;8.47;0.00
79645;BME280;69117;47.148;18.954;2023-05-02T03:49:11;100588.81;;;8.38;0.00
79645;BME280;69117;47.148;18.954;2023-05-02T03:52:14;100604.13;;;8.55;0.00
79645;BME280;69117;47.148;18.954;2023-05-02T03:55:15;100603.94;;;8.68;0.00
79645;BME280;69117;47.148;18.954;2023-05-02T03:58:17;100605.72;;;8.79;0.00
79645;BME280;69117;47.148;18.954;2023-05-02T04:01:18;100595.53;;;8.74;0.00
79645;BME280;69117;47.148;18.954;2023-05-02T04:04:20;100612.84;;;8.88;0.00
79645;BME280;69117;47.148;18.954;2023-05-02T04:07:22;100609.25;;;8.89;0.00
79645;BME280;69117;47.148;18.954;2023-05-02T04:10:26;100612.56;;;9.02;0.00
79645;BME280;69117;47.148;18.954;2023-05-02T04:13:27;100600.94;;;9.05;0.00
79645;BME280;69117;47.148;18.954;2023-05-02T04:16:29;100607.13;;;9.25;0.00
79645;BME280;69117;47.148;18.954;2023-05-02T04:19:31;100615.25;;;9.33;0.00
79645;BME280;69117;47.148;18.954;2023-05-02T04:22:34;100607.28;;;9.44;0.00
79645;BME280;69117;47.148;18.954;2023-05-02T04:25:35;100619.19;;;9.69;0.00
79645;BME280;69117;47.148;18.954;2023-05-02T04:28:37;100596.00;;;9.73;0.00
79645;BME280;69117;47.148;18.954;2023-05-02T04:31:38;100616.09;;;10.04;0.00
79645;BME280;69117;47.148;18.954;2023-05-02T04:34:40;100624.28;;;10.32;0.00
79645;BME280;69117;47.148;18.954;2023-05-02T04:37:42;100615.13;;;10.46;0.00
79645;BME280;69117;47.148;18.954;2023-05-02T04:40:44;100626.41;;;10.67;0.00
79645;BME280;69117;47.148;18.954;2023-05-02T04:43:46;100626.69;;;10.84;0.00
79645;BME280;69117;47.148;18.954;2023-05-02T04:46:47;100627.78;;;11.00;0.00
79645;BME280;69117;47.148;18.954;2023-05-02T04:49:49;100635.84;;;11.18;0.00
79645;BME280;69117;47.148;18.954;2023-05-02T04:52:51;100642.94;;;11.28;0.00
79645;BME280;69117;47.148;18.954;2023-05-02T04:55:52;100635.25;;;11.34;0.00
79645;BME280;69117;47.148;18.954;2023-05-02T04:58:54;100648.00;;;11.58;0.00
79645;BME280;69117;47.148;18.954;2023-05-02T05:01:56;100643.25;;;11.72;0.00
79645;BME280;69117;47.148;18.954;2023-05-02T05:05:00;100630.41;;;11.86;0.00
79645;BME280;69117;47.148;18.954;2023-05-02T05:08:02;100628.06;;;12.11;0.00
79645;BME280;69117;47.148;18.954;2023-05-02T05:11:03;100647.50;;;12.47;0.00
79645;BME280;69117;47.148;18.954;2023-05-02T05:14:05;100648.59;;;12.72;0.00
79645;BME280;69117;47.148;18.954;2023-05-02T05:17:07;100646.06;;;12.89;0.00
79645;BME280;69117;47.148;18.954;2023-05-02T05:20:08;100644.09;;;13.26;0.00
79645;BME280;69117;47.148;18.954;2023-05-02T05:23:10;100653.69;;;13.45;0.00
79645;BME280;69117;47.148;18.954;2023-05-02T05:26:14;100646.16;;;13.59;0.00
79645;BME280;69117;47.148;18.954;2023-05-02T05:29:16;100647.19;;;13.66;0.00
79645;BME280;69117;47.148;18.954;2023-05-02T05:32:19;100648.69;;;13.68;0.00
79645;BME280;69117;47.148;18.954;2023-05-02T05:35:23;100668.34;;;13.84;0.00
79645;BME280;69117;47.148;18.954;2023-05-02T05:38:25;100656.47;;;13.96;0.00
79645;BME280;69117;47.148;18.954;2023-05-02T05:41:26;100671.84;;;14.18;26.74
79645;BME280;69117;47.148;18.954;2023-05-02T05:44:28;100673.38;;;14.29;73.01
79645;BME280;69117;47.148;18.954;2023-05-02T05:47:29;100676.72;;;14.39;72.58
79645;BME280;69117;47.148;18.954;2023-05-02T05:50:31;100667.59;;;14.42;72.73
79645;BME280;69117;47.148;18.954;2023-05-02T05:53:33;100677.44;;;14.50;71.09
79645;BME280;69117;47.148;18.954;2023-05-02T05:56:34;100674.16;;;14.64;70.05
79645;BME280;69117;47.148;18.954;2023-05-02T05:59:36;100679.34;;;14.65;69.86
79645;BME280;69117;47.148;18.954;2023-05-02T06:02:38;100678.03;;;14.78;68.88
79645;BME280;69117;47.148;18.954;2023-05-02T06:05:39;100679.53;;;14.97;69.46
79645;BME280;69117;47.148;18.954;2023-05-02T06:08:41;100678.06;;;15.27;69.04
79645;BME280;69117;47.148;18.954;2023-05-02T06:11:42;100678.56;;;15.39;66.62
79645;BME280;69117;47.148;18.954;2023-05-02T06:14:44;100678.69;;;15.62;66.23
79645;BME280;69117;47.148;18.954;2023-05-02T06:17:46;100679.50;;;15.95;63.00
79645;BME280;69117;47.148;18.954;2023-05-02T06:20:47;100672.88;;;16.22;62.81
79645;BME280;69117;47.148;18.954;2023-05-02T06:23:49;100680.63;;;16.40;61.37
79645;BME280;69117;47.148;18.954;2023-05-02T06:26:50;100682.75;;;16.53;60.85
79645;BME280;69117;47.148;18.954;2023-05-02T06:29:52;100688.28;;;16.74;61.12
79645;BME280;69117;47.148;18.954;2023-05-02T06:32:54;100679.13;;;16.77;58.50
79645;BME280;69117;47.148;18.954;2023-05-02T06:35:56;100657.75;;;17.00;58.16
79645;BME280;69117;47.148;18.954;2023-05-02T06:39:01;100668.09;;;17.03;56.91
79645;BME280;69117;47.148;18.954;2023-05-02T06:42:02;100693.88;;;16.87;58.00
79645;BME280;69117;47.148;18.954;2023-05-02T06:45:04;100693.50;;;16.67;58.08
79645;BME280;69117;47.148;18.954;2023-05-02T06:48:06;100685.41;;;16.53;59.50
79645;BME280;69117;47.148;18.954;2023-05-02T06:51:08;100710.41;;;16.52;60.05
79645;BME280;69117;47.148;18.954;2023-05-02T06:54:10;100707.00;;;16.66;58.90
79645;BME280;69117;47.148;18.954;2023-05-02T06:57:11;100703.84;;;16.93;58.50
79645;BME280;69117;47.148;18.954;2023-05-02T07:00:15;100684.72;;;17.13;58.10
79645;BME280;69117;47.148;18.954;2023-05-02T07:03:17;100693.28;;;17.23;58.42
79645;BME280;69117;47.148;18.954;2023-05-02T07:06:19;100703.88;;;17.16;60.07
79645;BME280;69117;47.148;18.954;2023-05-02T07:09:22;100695.84;;;17.16;59.01
79645;BME280;69117;47.148;18.954;2023-05-02T07:12:24;100702.09;;;16.86;58.18
79645;BME280;69117;47.148;18.954;2023-05-02T07:15:26;100704.94;;;17.07;58.15
79645;BME280;69117;47.148;18.954;2023-05-02T07:18:28;100707.97;;;17.42;58.50
79645;BME280;69117;47.148;18.954;2023-05-02T07:21:29;100710.53;;;17.58;57.74
79645;BME280;69117;47.148;18.954;2023-05-02T07:24:32;100709.34;;;17.61;56.49
79645;BME280;69117;47.148;18.954;2023-05-02T07:27:34;100707.72;;;17.90;57.61
79645;BME280;69117;47.148;18.954;2023-05-02T07:30:35;100716.59;;;18.05;56.25
79645;BME280;69117;47.148;18.954;2023-05-02T07:33:37;100715.69;;;18.13;56.82
79645;BME280;69117;47.148;18.954;2023-05-02T07:36:39;100712.97;;;18.27;57.07
79645;BME280;69117;47.148;18.954;2023-05-02T07:39:40;100700.66;;;18.48;58.44
79645;BME280;69117;47.148;18.954;2023-05-02T07:42:42;100720.19;;;18.78;54.95
79645;BME280;69117;47.148;18.954;2023-05-02T07:45:44;100708.81;;;19.62;52.53
79645;BME280;69117;47.148;18.954;2023-05-02T07:48:46;100701.69;;;19.97;51.87
79645;BME280;69117;47.148;18.954;2023-05-02T07:51:48;100707.09;;;19.76;49.74
79645;BME280;69117;47.148;18.954;2023-05-02T07:54:50;100692.03;;;19.75;49.86
79645;BME280;69117;47.148;18.954;2023-05-02T07:57:52;100697.50;;;19.88;50.28
79645;BME280;69117;47.148;18.954;2023-05-02T08:00:54;100692.66;;;20.11;50.52
79645;BME280;69117;47.148;18.954;2023-05-02T08:03:55;100686.91;;;20.69;47.90
79645;BME280;69117;47.148;18.954;2023-05-02T08:06:57;100695.25;;;21.21;45.28
79645;BME280;69117;47.148;18.954;2023-05-02T08:09:59;100691.28;;;20.70;44.51
79645;BME280;69117;47.148;18.954;2023-05-02T08:13:01;100694.66;;;21.19;44.49
79645;BME280;69117;47.148;18.954;2023-05-02T08:16:03;100682.66;;;21.75;43.60
79645;BME280;69117;47.148;18.954;2023-05-02T08:19:05;100682.66;;;21.88;43.71
79645;BME280;69117;47.148;18.954;2023-05-02T08:22:06;100695.41;;;22.06;44.04
79645;BME280;69117;47.148;18.954;2023-05-02T08:25:08;100690.75;;;21.48;43.11
79645;BME280;69117;47.148;18.954;2023-05-02T08:28:10;100691.16;;;21.71;42.04
79645;BME280;69117;47.148;18.954;2023-05-02T08:31:11;100690.53;;;21.10;42.33
79645;BME280;69117;47.148;18.954;2023-05-02T08:34:13;100676.03;;;20.97;42.25
79645;BME280;69117;47.148;18.954;2023-05-02T08:37:15;100684.72;;;21.86;42.11
79645;BME280;69117;47.148;18.954;2023-05-02T08:40:16;100685.78;;;21.65;40.51
79645;BME280;69117;47.148;18.954;2023-05-02T08:43:34;100660.06;;;22.47;41.31
79645;BME280;69117;47.148;18.954;2023-05-02T08:46:40;100677.75;;;22.36;39.36
79645;BME280;69117;47.148;18.954;2023-05-02T08:49:42;100686.28;;;22.20;40.20
79645;BME280;69117;47.148;18.954;2023-05-02T08:52:44;100684.31;;;22.85;41.15
79645;BME280;69117;47.148;18.954;2023-05-02T08:55:48;100688.56;;;22.23;38.17
79645;BME280;69117;47.148;18.954;2023-05-02T08:58:49;100677.94;;;23.12;39.15
79645;BME280;69117;47.148;18.954;2023-05-02T09:01:54;100682.16;;;22.62;39.50
79645;BME280;69117;47.148;18.954;2023-05-02T09:05:02;100673.88;;;22.06;39.98
79645;BME280;69117;47.148;18.954;2023-05-02T09:08:07;100671.34;;;22.69;38.14
79645;BME280;69117;47.148;18.954;2023-05-02T09:11:11;100676.41;;;23.22;37.78
79645;BME280;69117;47.148;18.954;2023-05-02T09:14:14;100676.03;;;22.42;37.45
79645;BME280;69117;47.148;18.954;2023-05-02T09:17:16;100691.03;;;23.08;39.29
79645;BME280;69117;47.148;18.954;2023-05-02T09:20:17;100680.09;;;23.28;37.50
79645;BME280;69117;47.148;18.954;2023-05-02T09:23:19;100678.06;;;23.48;36.25
79645;BME280;69117;47.148;18.954;2023-05-02T09:26:25;100687.78;;;23.74;37.08
79645;BME280;69117;47.148;18.954;2023-05-02T09:29:32;100681.06;;;23.08;36.74
79645;BME280;69117;47.148;18.954;2023-05-02T09:32:46;100670.31;;;23.34;35.09
79645;BME280;69117;47.148;18.954;2023-05-02T09:35:53;100685.00;;;23.38;38.10
79645;BME280;69117;47.148;18.954;2023-05-02T09:39:08;100670.47;;;24.37;39.35
79645;BME280;69117;47.148;18.954;2023-05-02T09:42:10;100671.09;;;24.70;39.17
79645;BME280;69117;47.148;18.954;2023-05-02T09:45:21;100670.66;;;25.26;35.61
79645;BME280;69117;47.148;18.954;2023-05-02T09:48:25;100661.72;;;25.96;33.39
79645;BME280;69117;47.148;18.954;2023-05-02T09:51:28;100666.41;;;25.77;36.55
79645;BME280;69117;47.148;18.954;2023-05-02T09:54:36;100665.16;;;25.33;35.78
79645;BME280;69117;47.148;18.954;2023-05-02T09:57:38;100665.00;;;24.26;34.55
79645;BME280;69117;47.148;18.954;2023-05-02T10:00:43;100662.81;;;24.53;36.02
79645;BME280;69117;47.148;18.954;2023-05-02T10:03:46;100665.94;;;25.22;35.42
79645;BME280;69117;47.148;18.954;2023-05-02T10:06:50;100652.31;;;25.28;33.87
79645;BME280;69117;47.148;18.954;2023-05-02T10:09:53;100647.88;;;24.50;32.71
79645;BME280;69117;47.148;18.954;2023-05-02T10:12:59;100649.13;;;25.20;34.16
79645;BME280;69117;47.148;18.954;2023-05-02T10:16:05;100643.91;;;26.12;33.60
79645;BME280;69117;47.148;18.954;2023-05-02T10:19:11;100635.03;;;25.18;32.65
79645;BME280;69117;47.148;18.954;2023-05-02T10:22:14;100635.97;;;24.70;32.52
79645;BME280;69117;47.148;18.954;2023-05-02T10:25:19;100619.50;;;24.41;32.47
79645;BME280;69117;47.148;18.954;2023-05-02T10:28:21;100643.25;;;25.23;31.15
79645;BME280;69117;47.148;18.954;2023-05-02T10:31:23;100650.44;;;24.87;31.91
79645;BME280;69117;47.148;18.954;2023-05-02T10:34:26;100651.56;;;25.09;33.50
79645;BME280;69117;47.148;18.954;2023-05-02T10:37:28;100632.44;;;25.46;31.15
79645;BME280;69117;47.148;18.954;2023-05-02T10:40:34;100636.41;;;25.20;32.14
79645;BME280;69117;47.148;18.954;2023-05-02T10:43:36;100625.84;;;25.30;31.83
79645;BME280;69117;47.148;18.954;2023-05-02T10:46:39;100637.06;;;26.38;30.02
79645;BME280;69117;47.148;18.954;2023-05-02T10:49:58;100627.84;;;25.47;30.56
79645;BME280;69117;47.148;18.954;2023-05-02T10:53:30;100630.06;;;25.26;31.85
79645;BME280;69117;47.148;18.954;2023-05-02T10:56:32;100636.88;;;26.28;32.07
79645;BME280;69117;47.148;18.954;2023-05-02T10:59:35;100636.41;;;25.20;32.16
79645;BME280;69117;47.148;18.954;2023-05-02T11:02:48;100638.19;;;25.73;31.94
79645;BME280;69117;47.148;18.954;2023-05-02T11:06:03;100631.47;;;25.99;31.91
79645;BME280;69117;47.148;18.954;2023-05-02T11:12:50;100615.88;;;26.35;31.38
79645;BME280;69117;47.148;18.954;2023-05-02T11:18:57;100619.53;;;27.37;30.93
79645;BME280;69117;47.148;18.954;2023-05-02T11:25:28;100627.50;;;27.10;29.80
79645;BME280;69117;47.148;18.954;2023-05-02T11:34:52;100614.28;;;27.30;29.47
79645;BME280;69117;47.148;18.954;2023-05-02T11:40:58;100605.22;;;26.57;31.31
79645;BME280;69117;47.148;18.954;2023-05-02T11:44:03;100609.63;;;26.18;31.29
79645;BME280;69117;47.148;18.954;2023-05-02T11:47:05;100602.66;;;25.81;32.36
79645;BME280;69117;47.148;18.954;2023-05-02T11:50:07;100588.13;;;26.28;31.37
79645;BME280;69117;47.148;18.954;2023-05-02T11:53:12;100608.84;;;26.80;31.03
79645;BME280;69117;47.148;18.954;2023-05-02T11:56:14;100622.31;;;26.58;31.43
79645;BME280;69117;47.148;18.954;2023-05-02T11:59:16;100614.63;;;25.03;31.02
79645;BME280;69117;47.148;18.954;2023-05-02T12:02:19;100614.00;;;26.07;31.39
79645;BME280;69117;47.148;18.954;2023-05-02T12:05:28;100609.34;;;26.60;30.19
79645;BME280;69117;47.148;18.954;2023-05-02T12:08:30;100600.13;;;26.61;29.59
79645;BME280;69117;47.148;18.954;2023-05-02T12:11:32;100592.78;;;25.64;30.36
79645;BME280;69117;47.148;18.954;2023-05-02T12:14:35;100601.84;;;25.57;29.93
79645;BME280;69117;47.148;18.954;2023-05-02T12:17:46;100594.47;;;25.18;31.86
79645;BME280;69117;47.148;18.954;2023-05-02T12:20:50;100589.41;;;25.33;32.35
79645;BME280;69117;47.148;18.954;2023-05-02T12:23:52;100597.09;;;25.88;32.86
79645;BME280;69117;47.148;18.954;2023-05-02T12:27:13;100585.94;;;25.02;30.66
79645;BME280;69117;47.148;18.954;2023-05-02T12:30:26;100589.16;;;25.98;30.24
79645;BME280;69117;47.148;18.954;2023-05-02T12:33:27;100591.47;;;24.96;30.93
79645;BME280;69117;47.148;18.954;2023-05-02T12:36:29;100580.63;;;24.84;32.58
79645;BME280;69117;47.148;18.954;2023-05-02T12:39:49;100608.78;;;25.53;33.75
79645;BME280;69117;47.148;18.954;2023-05-02T12:43:00;100599.50;;;25.38;32.82
79645;BME280;69117;47.148;18.954;2023-05-02T12:46:09;100606.88;;;25.07;33.41
79645;BME280;69117;47.148;18.954;2023-05-02T12:49:11;100595.41;;;24.58;33.69
79645;BME280;69117;47.148;18.954;2023-05-02T12:52:13;100594.16;;;24.84;34.40
79645;BME280;69117;47.148;18.954;2023-05-02T12:55:23;100601.47;;;24.53;33.55
79645;BME280;69117;47.148;18.954;2023-05-02T12:58:24;100591.31;;;24.07;33.73
79645;BME280;69117;47.148;18.954;2023-05-02T13:01:28;100607.75;;;24.65;33.63
79645;BME280;69117;47.148;18.954;2023-05-02T13:04:40;100593.75;;;24.38;33.95
79645;BME280;69117;47.148;18.954;2023-05-02T13:07:42;100588.63;;;23.70;35.29
79645;BME280;69117;47.148;18.954;2023-05-02T13:10:44;100600.31;;;23.82;35.82
79645;BME280;69117;47.148;18.954;2023-05-02T13:13:46;100591.53;;;23.87;35.66
79645;BME280;69117;47.148;18.954;2023-05-02T13:16:48;100581.41;;;23.45;36.48
79645;BME280;69117;47.148;18.954;2023-05-02T13:19:50;100590.31;;;23.27;37.84
79645;BME280;69117;47.148;18.954;2023-05-02T13:23:01;100589.66;;;23.07;39.55
79645;BME280;69117;47.148;18.954;2023-05-02T13:26:03;100602.28;;;23.31;36.69
79645;BME280;69117;47.148;18.954;2023-05-02T13:29:05;100590.81;;;23.80;36.72
79645;BME280;69117;47.148;18.954;2023-05-02T13:32:07;100590.56;;;23.81;35.62
79645;BME280;69117;47.148;18.954;2023-05-02T13:35:08;100581.00;;;23.42;37.29
79645;BME280;69117;47.148;18.954;2023-05-02T13:38:14;100583.25;;;23.45;37.94
79645;BME280;69117;47.148;18.954;2023-05-02T13:41:15;100595.31;;;23.24;37.69
79645;BME280;69117;47.148;18.954;2023-05-02T13:44:17;100592.72;;;23.11;38.26
79645;BME280;69117;47.148;18.954;2023-05-02T13:47:18;100589.41;;;23.08;38.59
79645;BME280;69117;47.148;18.954;2023-05-02T13:50:21;100582.50;;;23.38;39.26
79645;BME280;69117;47.148;18.954;2023-05-02T13:53:23;100583.06;;;23.46;38.45
79645;BME280;69117;47.148;18.954;2023-05-02T13:56:25;100573.81;;;23.36;38.23
79645;BME280;69117;47.148;18.954;2023-05-02T13:59:27;100578.19;;;23.37;37.19
79645;BME280;69117;47.148;18.954;2023-05-02T14:02:28;100577.94;;;23.38;39.73
79645;BME280;69117;47.148;18.954;2023-05-02T14:05:30;100579.34;;;23.22;37.72
79645;BME280;69117;47.148;18.954;2023-05-02T14:08:32;100579.94;;;23.06;38.88
79645;BME280;69117;47.148;18.954;2023-05-02T14:11:33;100585.19;;;22.62;38.49
79645;BME280;69117;47.148;18.954;2023-05-02T14:14:35;100577.28;;;22.36;37.46
79645;BME280;69117;47.148;18.954;2023-05-02T14:17:38;100579.88;;;22.24;38.15
79645;BME280;69117;47.148;18.954;2023-05-02T14:20:40;100583.44;;;22.05;39.48
79645;BME280;69117;47.148;18.954;2023-05-02T14:23:41;100585.16;;;21.92;40.18
79645;BME280;69117;47.148;18.954;2023-05-02T14:26:43;100591.44;;;21.66;45.47
79645;BME280;69117;47.148;18.954;2023-05-02T14:29:46;100591.94;;;21.37;45.52
79645;BME280;69117;47.148;18.954;2023-05-02T14:32:48;100587.56;;;20.69;51.51
79645;BME280;69117;47.148;18.954;2023-05-02T14:35:49;100599.09;;;19.88;56.49
79645;BME280;69117;47.148;18.954;2023-05-02T14:38:51;100616.25;;;19.31;58.96
79645;BME280;69117;47.148;18.954;2023-05-02T14:41:53;100607.31;;;18.74;62.79
79645;BME280;69117;47.148;18.954;2023-05-02T14:44:54;100605.38;;;18.47;64.53
79645;BME280;69117;47.148;18.954;2023-05-02T14:48:00;100589.91;;;18.27;65.28
79645;BME280;69117;47.148;18.954;2023-05-02T14:51:02;100599.03;;;18.33;65.79
79645;BME280;69117;47.148;18.954;2023-05-02T14:54:04;100590.91;;;18.41;65.48
79645;BME280;69117;47.148;18.954;2023-05-02T14:57:07;100595.94;;;18.51;65.55
79645;BME280;69117;47.148;18.954;2023-05-02T15:00:09;100598.69;;;18.58;66.83
79645;BME280;69117;47.148;18.954;2023-05-02T15:03:11;100601.25;;;18.66;64.69
79645;BME280;69117;47.148;18.954;2023-05-02T15:06:14;100605.91;;;18.79;62.86
79645;BME280;69117;47.148;18.954;2023-05-02T15:09:16;100595.72;;;18.67;62.11
79645;BME280;69117;47.148;18.954;2023-05-02T15:12:18;100600.69;;;18.70;62.33
79645;BME280;69117;47.148;18.954;2023-05-02T15:15:19;100604.69;;;18.60;64.72
79645;BME280;69117;47.148;18.954;2023-05-02T15:18:25;100608.94;;;18.54;64.77
79645;BME280;69117;47.148;18.954;2023-05-02T15:21:27;100598.63;;;18.15;68.06
79645;BME280;69117;47.148;18.954;2023-05-02T15:24:28;100596.72;;;18.08;66.80
79645;BME280;69117;47.148;18.954;2023-05-02T15:27:31;100592.50;;;17.99;66.64
79645;BME280;69117;47.148;18.954;2023-05-02T15:30:32;100604.56;;;18.10;68.54
79645;BME280;69117;47.148;18.954;2023-05-02T15:33:34;100612.38;;;18.12;69.45
79645;BME280;69117;47.148;18.954;2023-05-02T15:36:35;100618.94;;;18.09;68.61
79645;BME280;69117;47.148;18.954;2023-05-02T15:39:37;100610.28;;;18.07;67.17
79645;BME280;69117;47.148;18.954;2023-05-02T15:42:39;100613.56;;;18.09;69.19
79645;BME280;69117;47.148;18.954;2023-05-02T15:45:41;100610.00;;;18.02;67.42
79645;BME280;69117;47.148;18.954;2023-05-02T15:48:43;100608.53;;;17.84;69.24
79645;BME280;69117;47.148;18.954;2023-05-02T15:51:44;100606.03;;;17.68;69.75
79645;BME280;69117;47.148;18.954;2023-05-02T15:54:46;100614.72;;;17.70;70.41
79645;BME280;69117;47.148;18.954;2023-05-02T15:57:47;100610.28;;;17.62;69.71
79645;BME280;69117;47.148;18.954;2023-05-02T16:00:52;100616.63;;;17.61;71.06
79645;BME280;69117;47.148;18.954;2023-05-02T16:03:53;100623.09;;;17.52;72.72
79645;BME280;69117;47.148;18.954;2023-05-02T16:06:55;100618.84;;;17.43;71.12
79645;BME280;69117;47.148;18.954;2023-05-02T16:09:57;100617.16;;;17.42;68.88
79645;BME280;69117;47.148;18.954;2023-05-02T16:12:58;100625.09;;;17.50;67.05
79645;BME280;69117;47.148;18.954;2023-05-02T16:16:00;100618.56;;;17.53;66.61
79645;BME280;69117;47.148;18.954;2023-05-02T16:19:02;100616.72;;;17.53;68.77
79645;BME280;69117;47.148;18.954;2023-05-02T16:22:03;100619.66;;;17.44;69.68
79645;BME280;69117;47.148;18.954;2023-05-02T16:25:05;100626.56;;;17.38;68.75
79645;BME280;69117;47.148;18.954;2023-05-02T16:28:07;100606.09;;;17.30;70.34
79645;BME280;69117;47.148;18.954;2023-05-02T16:31:09;100607.00;;;17.23;70.00